createdAt,value
2018-05-06T00:01:45.385Z,85.50
2018-05-06T00:04:13.006Z,85.40
2018-05-06T00:06:41.257Z,84.30
2018-05-06T00:09:09.534Z,86.00
2018-05-06T00:11:37.825Z,86.20
2018-05-06T00:14:06.229Z,86.10
2018-05-06T00:16:35.195Z,86.40
2018-05-06T00:19:04.524Z,87.40
2018-05-06T00:21:32.826Z,87.20
2018-05-06T00:24:00.354Z,87.90
2018-05-06T00:26:27.858Z,89.00
2018-05-06T00:28:55.413Z,89.00
2018-05-06T00:31:23.681Z,90.20
2018-05-06T00:33:51.985Z,90.20
2018-05-06T00:36:20.256Z,90.20
2018-05-06T00:38:48.549Z,89.10
2018-05-06T00:41:16.854Z,89.10
2018-05-06T00:43:44.339Z,89.10
2018-05-06T00:46:12.653Z,90.30
2018-05-06T00:48:40.916Z,91.60
2018-05-06T00:51:09.180Z,91.60
2018-05-06T00:53:37.494Z,91.70
2018-05-06T00:56:05.753Z,92.00
2018-05-06T00:58:33.274Z,92.00
2018-05-06T01:01:01.586Z,93.10
2018-05-06T01:03:33.586Z,93.10
2018-05-06T01:06:01.875Z,95.20
2018-05-06T01:08:32.558Z,95.20
2018-05-06T01:11:00.863Z,95.20
2018-05-06T01:13:28.350Z,95.20
2018-05-06T01:15:55.928Z,94.50
2018-05-06T01:18:23.429Z,95.30
2018-05-06T01:20:51.705Z,96.70
2018-05-06T01:23:19.239Z,96.70
2018-05-06T01:25:46.770Z,96.70
2018-05-06T01:28:16.249Z,98.10
2018-05-06T01:30:44.519Z,97.70
2018-05-06T01:33:12.046Z,97.70
2018-05-06T01:35:39.565Z,97.80
2018-05-06T01:38:08.089Z,99.70
2018-05-06T01:40:36.357Z,99.90
2018-05-06T01:43:03.873Z,99.90
2018-05-06T01:45:31.374Z,99.20
2018-05-06T01:47:58.900Z,99.90
2018-05-06T01:50:28.272Z,99.90
2018-05-06T01:52:56.909Z,99.90
2018-05-06T01:55:24.412Z,99.90
2018-05-06T01:57:51.912Z,99.90
2018-05-06T02:00:20.205Z,99.90
2018-05-06T02:02:47.703Z,99.90
2018-05-06T02:05:15.242Z,99.90
2018-05-06T02:07:42.733Z,99.90
2018-05-06T02:10:11.040Z,99.90
2018-05-06T02:12:38.532Z,99.90
2018-05-06T02:15:07.201Z,99.90
2018-05-06T02:17:34.726Z,99.90
2018-05-06T02:20:03.000Z,99.90
2018-05-06T02:22:30.489Z,99.90
2018-05-06T02:24:58.015Z,99.90
2018-05-06T02:27:28.955Z,99.90
2018-05-06T02:29:58.329Z,99.90
2018-05-06T02:32:27.502Z,99.90
2018-05-06T02:34:55.033Z,99.90
2018-05-06T02:37:28.811Z,99.90
2018-05-06T02:39:58.464Z,99.90
2018-05-06T02:42:25.998Z,99.90
2018-05-06T02:44:53.526Z,99.90
2018-05-06T02:47:21.013Z,99.90
2018-05-06T02:49:49.274Z,99.90
2018-05-06T02:52:16.818Z,99.90
2018-05-06T02:54:44.336Z,99.90
2018-05-06T02:57:15.418Z,99.90
2018-05-06T02:59:43.705Z,99.90
2018-05-06T03:02:11.208Z,99.90
2018-05-06T03:04:38.736Z,99.90
2018-05-06T03:07:06.240Z,99.90
2018-05-06T03:09:34.547Z,99.90
2018-05-06T03:12:08.272Z,99.90
2018-05-06T03:14:37.065Z,99.90
2018-05-06T03:17:11.287Z,99.90
2018-05-06T03:19:39.581Z,99.90
2018-05-06T03:22:08.097Z,99.90
2018-05-06T03:24:36.661Z,99.90
2018-05-06T03:27:04.931Z,99.90
2018-05-06T03:29:33.201Z,99.90
2018-05-06T03:32:00.737Z,99.90
2018-05-06T03:34:28.233Z,99.90
2018-05-06T03:36:56.624Z,99.90
2018-05-06T03:39:24.929Z,99.90
2018-05-06T03:41:52.438Z,99.90
2018-05-06T03:44:19.962Z,99.90
2018-05-06T03:46:47.484Z,99.90
2018-05-06T03:49:15.745Z,99.90
2018-05-06T03:51:46.733Z,99.90
2018-05-06T03:54:14.251Z,99.90
2018-05-06T03:57:06.064Z,99.90
2018-05-06T03:59:46.076Z,99.90
2018-05-06T04:02:32.050Z,99.90
2018-05-06T04:04:59.592Z,99.90
2018-05-06T04:07:28.056Z,99.90
2018-05-06T04:09:57.154Z,99.90
2018-05-06T04:12:24.697Z,99.90
2018-05-06T04:14:52.965Z,99.90
2018-05-06T04:17:24.252Z,99.90
2018-05-06T04:19:52.541Z,99.90
2018-05-06T04:22:26.705Z,99.90
2018-05-06T04:24:54.209Z,99.90
2018-05-06T04:27:23.683Z,99.90
2018-05-06T04:29:51.967Z,99.90
2018-05-06T04:32:19.475Z,99.90
2018-05-06T04:34:47.779Z,99.90
2018-05-06T04:37:15.284Z,99.90
2018-05-06T04:39:43.615Z,99.90
2018-05-06T04:42:13.090Z,99.90
2018-05-06T04:44:40.595Z,99.90
2018-05-06T04:47:08.140Z,99.90
2018-05-06T04:49:36.421Z,99.90
2018-05-06T04:52:08.075Z,99.90
2018-05-06T04:54:36.345Z,99.90
2018-05-06T04:57:03.845Z,99.90
2018-05-06T04:59:32.146Z,99.90
2018-05-06T05:01:59.653Z,99.90
2018-05-06T05:04:28.289Z,99.90
2018-05-06T05:06:56.452Z,99.90
2018-05-06T05:09:24.718Z,99.90
2018-05-06T05:11:52.210Z,99.90
2018-05-06T05:14:20.529Z,99.90
2018-05-06T05:16:48.046Z,99.90
2018-05-06T05:19:16.336Z,99.90
2018-05-06T05:21:50.385Z,99.90
2018-05-06T05:24:18.679Z,99.90
2018-05-06T05:26:46.937Z,99.90
2018-05-06T05:29:15.237Z,99.90
2018-05-06T05:31:46.199Z,99.90
2018-05-06T05:34:13.720Z,99.90
2018-05-06T05:36:41.227Z,99.90
2018-05-06T05:39:09.536Z,99.90
2018-05-06T05:41:39.011Z,99.90
2018-05-06T05:44:07.666Z,99.90
2018-05-06T05:46:42.989Z,99.90
2018-05-06T05:49:11.249Z,99.90
2018-05-06T05:51:42.488Z,99.90
2018-05-06T05:54:10.001Z,99.90
2018-05-06T05:56:41.364Z,99.90
2018-05-06T05:59:09.628Z,99.90
2018-05-06T06:01:38.137Z,99.90
2018-05-06T06:04:06.685Z,99.90
2018-05-06T06:06:34.186Z,99.90
2018-05-06T06:09:02.480Z,99.90
2018-05-06T06:11:37.193Z,99.90
2018-05-06T06:14:05.486Z,99.90
2018-05-06T06:16:37.620Z,99.90
2018-05-06T06:19:07.146Z,99.90
2018-05-06T06:21:37.617Z,99.90
2018-05-06T06:24:06.326Z,99.90
2018-05-06T06:26:34.632Z,99.90
2018-05-06T06:29:02.890Z,99.90
2018-05-06T06:31:31.180Z,99.90
2018-05-06T06:33:58.741Z,99.90
2018-05-06T06:36:26.957Z,99.90
2018-05-06T06:38:54.440Z,99.90
2018-05-06T06:41:22.737Z,99.90
2018-05-06T06:43:50.263Z,99.90
2018-05-06T06:46:17.782Z,99.90
2018-05-06T06:48:46.250Z,99.90
2018-05-06T06:51:14.507Z,99.90
2018-05-06T06:53:45.566Z,99.90
2018-05-06T06:56:16.011Z,99.90
2018-05-06T06:58:44.309Z,99.90
2018-05-06T07:01:12.577Z,99.90
2018-05-06T07:03:40.097Z,99.90
2018-05-06T07:06:07.799Z,99.90
2018-05-06T07:08:35.890Z,99.90
2018-05-06T07:11:07.838Z,99.90
2018-05-06T07:13:35.904Z,99.90
2018-05-06T07:16:04.398Z,99.90
2018-05-06T07:18:31.957Z,99.90
2018-05-06T07:21:00.227Z,99.90
2018-05-06T07:23:27.747Z,99.90
2018-05-06T07:25:55.287Z,99.90
2018-05-06T07:28:23.717Z,99.90
2018-05-06T07:30:51.952Z,99.90
2018-05-06T07:33:20.437Z,99.90
2018-05-06T07:35:48.724Z,99.90
2018-05-06T07:38:17.018Z,99.90
2018-05-06T07:40:45.314Z,99.90
2018-05-06T07:43:12.811Z,99.90
2018-05-06T07:45:40.356Z,99.90
2018-05-06T07:48:08.640Z,99.90
2018-05-06T07:50:37.629Z,99.90
2018-05-06T07:53:05.103Z,99.90
2018-05-06T07:55:33.393Z,99.90
2018-05-06T07:58:00.921Z,99.90
2018-05-06T08:00:29.212Z,99.90
2018-05-06T08:02:58.016Z,99.90
2018-05-06T08:05:26.056Z,99.90
2018-05-06T08:07:54.319Z,99.90
2018-05-06T08:10:22.596Z,99.90
2018-05-06T08:12:50.887Z,99.90
2018-05-06T08:15:18.402Z,99.90
2018-05-06T08:17:46.689Z,99.90
2018-05-06T08:20:14.958Z,99.90
2018-05-06T08:22:42.509Z,99.90
2018-05-06T08:25:10.764Z,99.90
2018-05-06T08:27:39.627Z,99.90
2018-05-06T08:30:07.935Z,99.90
2018-05-06T08:32:37.141Z,99.90
2018-05-06T08:35:06.194Z,99.90
2018-05-06T08:37:33.748Z,99.90
2018-05-06T08:40:01.993Z,99.70
2018-05-06T08:42:30.289Z,96.80
2018-05-06T08:44:57.784Z,96.70
2018-05-06T08:47:26.834Z,98.50
2018-05-06T08:49:55.123Z,97.20
2018-05-06T08:52:23.419Z,97.50
2018-05-06T08:54:50.941Z,97.40
2018-05-06T08:57:18.468Z,97.40
2018-05-06T08:59:46.741Z,99.80
2018-05-06T09:02:15.033Z,99.40
2018-05-06T09:04:43.315Z,98.50
2018-05-06T09:07:11.608Z,97.10
2018-05-06T09:09:39.905Z,95.80
2018-05-06T09:12:08.513Z,95.80
2018-05-06T09:14:37.906Z,96.50
2018-05-06T09:17:07.165Z,96.80
2018-05-06T09:19:36.237Z,96.70
2018-05-06T09:22:03.683Z,96.70
2018-05-06T09:24:31.217Z,93.20
2018-05-06T09:26:59.497Z,96.40
2018-05-06T09:29:27.755Z,95.60
2018-05-06T09:31:55.281Z,95.70
2018-05-06T09:34:22.769Z,93.30
2018-05-06T09:36:50.298Z,95.90
2018-05-06T09:39:18.560Z,93.10
2018-05-06T09:41:48.017Z,93.40
2018-05-06T09:44:15.521Z,93.30
2018-05-06T09:46:43.018Z,93.70
2018-05-06T09:49:11.309Z,94.40
2018-05-06T09:51:39.585Z,94.80
2018-05-06T09:54:07.889Z,93.00
2018-05-06T09:56:35.971Z,93.00
2018-05-06T09:59:04.254Z,94.30
2018-05-06T10:01:31.760Z,94.30
2018-05-06T10:04:00.668Z,96.10
2018-05-06T10:06:28.211Z,95.90
2018-05-06T10:08:56.544Z,88.70
2018-05-06T10:11:24.034Z,88.60
2018-05-06T10:13:52.310Z,94.90
2018-05-06T10:16:20.572Z,94.60
2018-05-06T10:18:48.107Z,94.60
2018-05-06T10:21:16.466Z,89.60
2018-05-06T10:23:44.765Z,85.30
2018-05-06T10:26:12.333Z,85.10
2018-05-06T10:28:39.778Z,89.80
2018-05-06T10:31:08.073Z,88.10
2018-05-06T10:33:36.570Z,88.10
2018-05-06T10:36:04.107Z,83.90
2018-05-06T10:38:32.402Z,90.40
2018-05-06T10:41:01.527Z,84.00
2018-05-06T10:43:30.324Z,83.00
2018-05-06T10:45:57.825Z,83.10
2018-05-06T10:48:26.107Z,86.40
2018-05-06T10:50:54.398Z,78.90
2018-05-06T10:53:21.917Z,78.90
2018-05-06T10:55:49.459Z,79.80
2018-05-06T10:58:16.988Z,83.00
2018-05-06T11:00:45.275Z,78.30
2018-05-06T11:03:13.601Z,76.90
2018-05-06T11:05:41.878Z,76.30
2018-05-06T11:08:09.401Z,76.30
2018-05-06T11:10:37.689Z,83.30
2018-05-06T11:13:05.772Z,83.30
2018-05-06T11:15:33.335Z,85.00
2018-05-06T11:18:01.369Z,81.70
2018-05-06T11:20:29.707Z,77.10
2018-05-06T11:22:57.733Z,77.20
2018-05-06T11:25:25.254Z,76.30
2018-05-06T11:27:52.827Z,75.50
2018-05-06T11:30:21.096Z,71.00
2018-05-06T11:32:48.638Z,70.90
2018-05-06T11:35:16.137Z,71.40
2018-05-06T11:37:44.389Z,71.00
2018-05-06T11:40:12.672Z,68.30
2018-05-06T11:42:40.164Z,68.10
2018-05-06T11:45:09.210Z,68.70
2018-05-06T11:47:37.816Z,68.70
2018-05-06T11:50:06.972Z,63.10
2018-05-06T11:52:35.914Z,66.60
2018-05-06T11:55:04.197Z,67.50
2018-05-06T11:57:32.829Z,67.70
2018-05-06T12:00:01.456Z,65.50
2018-05-06T12:02:29.758Z,64.70
2018-05-06T12:04:57.246Z,64.70
2018-05-06T12:07:24.747Z,64.60
2018-05-06T12:09:53.113Z,59.70
2018-05-06T12:12:20.567Z,60.50
2018-05-06T12:14:48.108Z,59.60
2018-05-06T12:17:16.381Z,65.00
2018-05-06T12:19:44.694Z,63.40
2018-05-06T12:22:13.175Z,63.20
2018-05-06T12:24:41.475Z,59.30
2018-05-06T12:27:09.762Z,59.40
2018-05-06T12:29:38.094Z,64.60
2018-05-06T12:32:06.349Z,57.50
2018-05-06T12:34:34.658Z,59.10
2018-05-06T12:37:02.859Z,59.10
2018-05-06T12:39:32.319Z,59.90
2018-05-06T12:42:00.982Z,63.90
2018-05-06T12:44:28.509Z,63.90
2018-05-06T12:46:56.040Z,65.10
2018-05-06T12:49:24.311Z,58.30
2018-05-06T12:51:51.881Z,58.30
2018-05-06T12:54:20.162Z,55.10
2018-05-06T12:56:48.517Z,59.60
2018-05-06T12:59:16.808Z,58.80
2018-05-06T13:01:45.078Z,55.40
2018-05-06T13:04:13.353Z,57.90
2018-05-06T13:06:41.704Z,58.70
2018-05-06T13:09:09.958Z,56.60
2018-05-06T13:11:37.459Z,56.50
2018-05-06T13:14:04.992Z,56.70
2018-05-06T13:16:33.262Z,56.00
2018-05-06T13:19:02.521Z,53.00
2018-05-06T13:21:31.229Z,54.50
2018-05-06T13:23:59.481Z,56.50
2018-05-06T13:26:27.794Z,54.30
2018-05-06T13:28:56.058Z,53.60
2018-05-06T13:31:23.569Z,54.20
2018-05-06T13:33:51.875Z,53.60
2018-05-06T13:36:20.172Z,56.20
2018-05-06T13:38:48.546Z,56.70
2018-05-06T13:41:16.803Z,55.10
2018-05-06T13:43:44.333Z,55.10
2018-05-06T13:46:12.594Z,56.00
2018-05-06T13:48:40.901Z,52.40
2018-05-06T13:51:12.027Z,56.50
2018-05-06T13:53:40.314Z,55.00
2018-05-06T13:56:08.121Z,55.00
2018-05-06T13:58:36.458Z,56.60
2018-05-06T14:01:04.734Z,56.00
2018-05-06T14:03:32.370Z,56.00
2018-05-06T14:05:59.865Z,58.60
2018-05-06T14:08:28.173Z,55.10
2018-05-06T14:10:56.431Z,54.50
2018-05-06T14:13:24.707Z,55.90
2018-05-06T14:15:52.242Z,55.80
2018-05-06T14:18:19.739Z,54.60
2018-05-06T14:20:48.025Z,57.50
2018-05-06T14:23:15.554Z,56.90
2018-05-06T14:25:43.060Z,54.80
2018-05-06T14:28:10.588Z,55.40
2018-05-06T14:30:38.891Z,55.00
2018-05-06T14:33:07.195Z,55.10
2018-05-06T14:35:36.420Z,55.80
2018-05-06T14:38:03.964Z,55.70
2018-05-06T14:40:32.800Z,57.10
2018-05-06T14:43:01.540Z,58.00
2018-05-06T14:45:29.039Z,58.00
2018-05-06T14:48:08.360Z,56.10
2018-05-06T14:50:37.779Z,55.10
2018-05-06T14:53:05.321Z,55.20
2018-05-06T14:55:33.561Z,55.20
2018-05-06T14:58:01.541Z,55.70
2018-05-06T15:00:29.834Z,55.50
2018-05-06T15:02:57.329Z,55.50
2018-05-06T15:05:24.861Z,56.40
2018-05-06T15:07:53.150Z,57.10
2018-05-06T15:10:21.514Z,54.80
2018-05-06T15:12:48.974Z,54.80
2018-05-06T15:15:17.251Z,57.50
2018-05-06T15:17:44.783Z,57.40
2018-05-06T15:20:13.350Z,55.80
2018-05-06T15:22:40.890Z,56.30
2018-05-06T15:25:09.146Z,58.50
2018-05-06T15:27:37.429Z,58.20
2018-05-06T15:30:06.765Z,57.70
2018-05-06T15:32:36.244Z,58.00
2018-05-06T15:35:03.774Z,58.00
2018-05-06T15:37:31.263Z,57.10
2018-05-06T15:39:59.558Z,56.60
2018-05-06T15:42:27.824Z,58.20
2018-05-06T15:44:56.111Z,59.50
2018-05-06T15:47:23.621Z,59.50
2018-05-06T15:49:51.941Z,58.40
2018-05-06T15:52:19.442Z,58.30
2018-05-06T15:54:47.717Z,59.60
2018-05-06T15:57:16.007Z,62.60
2018-05-06T15:59:44.270Z,58.50
2018-05-06T16:02:32.434Z,58.50
2018-05-06T16:05:00.720Z,59.70
2018-05-06T16:07:28.245Z,59.70
2018-05-06T16:09:56.534Z,58.80
2018-05-06T16:12:24.803Z,59.80
2018-05-06T16:14:53.112Z,61.90
2018-05-06T16:17:20.618Z,61.90
2018-05-06T16:19:48.878Z,58.10
2018-05-06T16:22:17.207Z,61.30
2018-05-06T16:24:44.790Z,61.80
2018-05-06T16:27:12.338Z,58.20
2018-05-06T16:29:40.715Z,61.20
2018-05-06T16:32:08.923Z,60.60
2018-05-06T16:34:36.803Z,60.60
2018-05-06T16:37:04.324Z,62.30
2018-05-06T16:39:32.612Z,61.60
2018-05-06T16:42:00.197Z,61.60
2018-05-06T16:44:27.641Z,60.40
2018-05-06T16:46:55.910Z,61.90
2018-05-06T16:49:24.182Z,59.90
2018-05-06T16:51:51.770Z,59.90
2018-05-06T16:54:19.302Z,60.40
2018-05-06T16:56:47.602Z,63.10
2018-05-06T16:59:15.898Z,62.10
2018-05-06T17:01:43.419Z,62.10
2018-05-06T17:04:11.690Z,63.90
2018-05-06T17:06:39.234Z,63.90
2018-05-06T17:09:07.498Z,62.80
2018-05-06T17:11:36.922Z,65.00
2018-05-06T17:14:05.933Z,65.00
2018-05-06T17:16:34.189Z,65.40
2018-05-06T17:19:02.525Z,63.90
2018-05-06T17:21:30.808Z,62.90
2018-05-06T17:23:58.350Z,62.90
2018-05-06T17:26:26.654Z,64.70
2018-05-06T17:28:54.145Z,64.70
2018-05-06T17:31:22.417Z,65.60
2018-05-06T17:33:51.629Z,65.00
2018-05-06T17:36:19.113Z,65.00
2018-05-06T17:38:46.641Z,67.70
2018-05-06T17:41:14.925Z,66.40
2018-05-06T17:43:42.469Z,66.40
2018-05-06T17:46:10.386Z,67.80
2018-05-06T17:48:38.647Z,66.70
2018-05-06T17:51:08.182Z,66.90
2018-05-06T17:53:37.277Z,66.70
2018-05-06T17:56:04.778Z,67.90
2018-05-06T17:58:33.287Z,66.40
2018-05-06T18:01:01.577Z,68.90
2018-05-06T18:03:29.871Z,67.40
2018-05-06T18:05:58.139Z,68.20
2018-05-06T18:08:25.676Z,68.20
2018-05-06T18:10:53.986Z,69.50
2018-05-06T18:13:22.237Z,67.80
2018-05-06T18:15:49.754Z,67.80
2018-05-06T18:18:18.018Z,70.30
2018-05-06T18:20:46.323Z,69.80
2018-05-06T18:23:13.805Z,69.80
2018-05-06T18:25:42.102Z,70.80
2018-05-06T18:28:09.601Z,70.80
2018-05-06T18:30:37.902Z,71.00
2018-05-06T18:33:05.449Z,71.00
2018-05-06T18:35:33.855Z,70.60
2018-05-06T18:38:02.188Z,71.90
2018-05-06T18:40:30.469Z,71.80
2018-05-06T18:42:58.741Z,71.40
2018-05-06T18:45:26.290Z,71.40
2018-05-06T18:47:54.604Z,71.00
2018-05-06T18:50:22.866Z,72.00
2018-05-06T18:52:51.134Z,70.60
2018-05-06T18:55:19.637Z,70.60
2018-05-06T18:57:47.129Z,71.80
2018-05-06T19:00:15.429Z,71.00
2018-05-06T19:02:43.012Z,71.00
2018-05-06T19:05:10.470Z,71.40
2018-05-06T19:07:37.973Z,72.10
2018-05-06T19:10:06.234Z,72.70
2018-05-06T19:12:34.547Z,72.10
2018-05-06T19:15:03.265Z,72.00
2018-05-06T19:17:32.329Z,71.60
2018-05-06T19:20:01.626Z,71.90
2018-05-06T19:22:29.898Z,70.90
2018-05-06T19:24:58.161Z,72.90
2018-05-06T19:27:26.485Z,72.80
2018-05-06T19:29:54.743Z,72.70
2018-05-06T19:32:22.253Z,72.60
2018-05-06T19:34:49.777Z,72.10
2018-05-06T19:37:17.277Z,72.00
2018-05-06T19:39:45.583Z,71.20
2018-05-06T19:42:14.023Z,71.70
2018-05-06T19:44:41.512Z,71.80
2018-05-06T19:47:09.038Z,71.50
2018-05-06T19:49:38.203Z,71.30
2018-05-06T19:52:06.886Z,71.30
2018-05-06T19:54:34.377Z,72.40
2018-05-06T19:57:01.910Z,72.90
2018-05-06T19:59:30.208Z,72.70
2018-05-06T20:01:57.708Z,72.60
2018-05-06T20:04:37.755Z,73.10
2018-05-06T20:07:05.869Z,72.50
2018-05-06T20:09:34.125Z,72.80
2018-05-06T20:12:02.439Z,73.10
2018-05-06T20:14:29.945Z,73.10
2018-05-06T20:16:57.439Z,73.90
2018-05-06T20:19:25.786Z,74.80
2018-05-06T20:21:53.355Z,74.80
2018-05-06T20:24:20.841Z,74.40
2018-05-06T20:26:48.337Z,75.60
2018-05-06T20:29:16.630Z,75.60
2018-05-06T20:31:45.244Z,75.60
2018-05-06T20:34:14.072Z,76.30
2018-05-06T20:36:42.307Z,76.40
2018-05-06T20:39:10.619Z,75.60
2018-05-06T20:41:38.122Z,75.70
2018-05-06T20:44:06.686Z,76.40
2018-05-06T20:46:34.958Z,76.00
2018-05-06T20:49:03.238Z,77.90
2018-05-06T20:51:30.733Z,77.90
2018-05-06T20:53:58.252Z,78.20
2018-05-06T20:56:26.529Z,77.20
2018-05-06T20:58:54.304Z,77.20
2018-05-06T21:01:22.575Z,76.50
2018-05-06T21:03:50.901Z,77.60
2018-05-06T21:06:19.154Z,77.80
2018-05-06T21:08:46.661Z,77.80
2018-05-06T21:11:14.941Z,77.00
2018-05-06T21:13:42.468Z,77.00
2018-05-06T21:16:10.755Z,78.50
2018-05-06T21:18:38.274Z,78.40
2018-05-06T21:21:07.649Z,79.10
2018-05-06T21:23:35.935Z,79.10
2018-05-06T21:26:04.222Z,79.40
2018-05-06T21:28:31.743Z,79.30
2018-05-06T21:31:00.067Z,78.20
2018-05-06T21:33:27.623Z,78.10
2018-05-06T21:35:55.148Z,78.90
2018-05-06T21:38:23.433Z,78.80
2018-05-06T21:40:51.693Z,80.40
2018-05-06T21:43:19.267Z,80.40
2018-05-06T21:45:46.745Z,80.60
2018-05-06T21:48:15.162Z,80.60
2018-05-06T21:50:43.450Z,81.90
2018-05-06T21:53:11.734Z,83.30
2018-05-06T21:55:39.245Z,83.20
2018-05-06T21:58:07.850Z,83.40
2018-05-06T22:00:37.088Z,84.00
2018-05-06T22:03:04.581Z,84.00
2018-05-06T22:05:34.046Z,84.80
2018-05-06T22:08:01.548Z,83.90
2018-05-06T22:10:29.865Z,85.70
2018-05-06T22:12:58.132Z,85.30
2018-05-06T22:15:25.631Z,85.30
2018-05-06T22:17:53.925Z,85.80
2018-05-06T22:20:22.522Z,87.10
2018-05-06T22:22:50.046Z,87.10
2018-05-06T22:25:17.541Z,88.40
2018-05-06T22:27:46.378Z,90.20
2018-05-06T22:30:15.885Z,91.40
2018-05-06T22:32:44.762Z,91.20
2018-05-06T22:35:12.315Z,91.20
2018-05-06T22:37:39.847Z,91.30
2018-05-06T22:40:08.111Z,90.10
2018-05-06T22:42:36.741Z,90.60
2018-05-06T22:45:06.574Z,90.70
2018-05-06T22:47:34.091Z,90.70
2018-05-06T22:50:02.392Z,90.80
2018-05-06T22:52:29.913Z,90.80
2018-05-06T22:54:57.448Z,90.90
2018-05-06T22:57:25.723Z,90.70
2018-05-06T22:59:54.020Z,91.00
2018-05-06T23:02:21.518Z,91.00
2018-05-06T23:04:49.018Z,91.10
2018-05-06T23:07:16.549Z,91.70
2018-05-06T23:09:44.855Z,91.90
2018-05-06T23:12:12.375Z,92.00
2018-05-06T23:14:40.650Z,92.30
2018-05-06T23:17:08.187Z,92.30
2018-05-06T23:19:37.529Z,92.80
2018-05-06T23:22:06.710Z,92.80
2018-05-06T23:24:34.969Z,93.00
2018-05-06T23:27:02.489Z,93.00
2018-05-06T23:29:30.758Z,93.40
2018-05-06T23:31:59.062Z,93.70
2018-05-06T23:34:26.559Z,93.70
2018-05-06T23:36:54.095Z,93.80
2018-05-06T23:39:22.360Z,94.00
2018-05-06T23:41:49.899Z,94.00
2018-05-06T23:44:17.405Z,94.00
2018-05-06T23:46:44.937Z,94.40
2018-05-06T23:49:13.191Z,94.80
2018-05-06T23:51:40.719Z,94.80
2018-05-06T23:54:08.236Z,95.60
2018-05-06T23:56:37.430Z,96.40
2018-05-06T23:59:06.778Z,96.30
